Richmond's Hourly Summary for Sunday, March 19, 2017
Hour Temp
(f)
RH
(%)
Solar Rad.
(MJ/m2)
Rainfall
(in)
Wind
(mph)
3/19/2017 12:00 AM 66 91 0 0 3.19
3/19/2017 1:00 AM 65 94 0 0 0.69
3/19/2017 2:00 AM 64 95 0 0 2.24
3/19/2017 3:00 AM 63 97 0 0 0.06
3/19/2017 4:00 AM 63 97 0 0 0
3/19/2017 5:00 AM 63 98 0 0 0
3/19/2017 6:00 AM 61 99 0 0 0
3/19/2017 7:00 AM 60 99 0 0 0.06
3/19/2017 8:00 AM 60 99 0.04 0 0
3/19/2017 9:00 AM 63 99 0.31 0 0.63
3/19/2017 10:00 AM 70 81 1.47 0 4.66
3/19/2017 11:00 AM 73 69 1.93 0 7.07
3/19/2017 12:00 PM 76 57 2.75 0 6.77
3/19/2017 1:00 PM 78 53 2.95 0 6.73
3/19/2017 2:00 PM 81 47 3.27 0 7.02
3/19/2017 3:00 PM 82 40 2.22 0 7.14
3/19/2017 4:00 PM 83 39 1.61 0 8.57
3/19/2017 5:00 PM 83 39 1.46 0 9.77
3/19/2017 6:00 PM 82 45 0.99 0 11.74
3/19/2017 7:00 PM 80 51 0.5 0 12.25
3/19/2017 8:00 PM 75 63 0.08 0 11.16
3/19/2017 9:00 PM 72 74 0 0 9.93
3/19/2017 10:00 PM 69 83 0 0 9.35
3/19/2017 11:00 PM 68 89 0 0 7.05
Data Summary 70 74 19.58 0.00 5.25